Time,TemperatureF,DewpointF,PressureIn,WindDirection,WindDirectionDegrees,WindSpeedMPH,WindSpeedGustMPH,Humidity,HourlyPrecipIn,Conditions,Clouds,dailyrainin,SoftwareType,DateUTC
2013-01-16 00:00:00,31.9,27.9,30.19,SSW,202,0.0,0.0,85,0.00,CLR,,0.00,WeatherDisplay:10.37,2013-01-16 05:00:00,
2013-01-16 00:01:00,31.8,27.8,30.19,SSW,202,0.0,0.0,85,0.00,CLR,,0.00,WeatherDisplay:10.37,2013-01-16 05:01:00,
2013-01-16 00:06:00,31.9,28.2,30.19,SSW,202,0.0,0.0,86,0.00,OVC,,0.00,WeatherDisplay:10.37,2013-01-16 05:06:00,
2013-01-16 00:11:00,32.0,28.0,30.20,SSW,202,0.0,0.0,85,0.00,OVC,,0.00,WeatherDisplay:10.37,2013-01-16 05:11:00,
2013-01-16 00:16:00,32.3,28.0,30.20,SSW,202,0.0,0.0,84,0.00,OVC,,0.00,WeatherDisplay:10.37,2013-01-16 05:16:00,
2013-01-16 00:21:00,32.4,27.8,30.19,SSW,202,0.0,0.0,83,0.00,OVC,,0.00,WeatherDisplay:10.37,2013-01-16 05:21:00,
2013-01-16 00:26:00,32.7,26.6,30.19,North,360,1.1,2.3,78,0.00,OVC,,0.00,WeatherDisplay:10.37,2013-01-16 05:26:00,
2013-01-16 00:31:00,32.9,26.5,30.20,North,360,0.2,1.2,77,0.00,OVC,,0.00,WeatherDisplay:10.37,2013-01-16 05:31:00,
2013-01-16 00:36:00,33.0,25.9,30.20,NNW,337,0.3,2.3,75,0.00,OVC,,0.00,WeatherDisplay:10.37,2013-01-16 05:36:00,
2013-01-16 00:41:00,33.1,26.7,30.21,North,360,0.3,2.3,77,0.00,OVC,,0.00,WeatherDisplay:10.37,2013-01-16 05:41:00,
2013-01-16 00:46:00,33.2,27.1,30.21,WNW,292,0.6,1.2,78,0.00,OVC,,0.00,WeatherDisplay:10.37,2013-01-16 05:46:00,
2013-01-16 00:51:00,33.2,27.1,30.21,WNW,292,0.0,1.2,78,0.00,OVC,,0.00,WeatherDisplay:10.37,2013-01-16 05:51:00,
2013-01-16 00:56:00,33.1,27.3,30.21,WNW,292,0.0,0.0,79,0.00,OVC,,0.00,WeatherDisplay:10.37,2013-01-16 05:56:00,
2013-01-16 01:01:00,33.0,27.8,30.21,WNW,292,0.0,0.0,81,0.00,OVC,,0.00,WeatherDisplay:10.37,2013-01-16 06:01:00,
2013-01-16 01:06:00,32.9,27.7,30.20,WNW,292,0.0,0.0,81,0.00,OVC,,0.00,WeatherDisplay:10.37,2013-01-16 06:06:00,
2013-01-16 01:11:00,32.8,27.6,30.20,WNW,292,0.0,0.0,81,0.00,OVC,,0.00,WeatherDisplay:10.37,2013-01-16 06:11:00,
2013-01-16 01:16:00,32.7,27.2,30.20,WNW,292,0.0,0.0,80,0.00,OVC,,0.00,WeatherDisplay:10.37,2013-01-16 06:16:00,
2013-01-16 01:21:00,32.7,27.5,30.20,WNW,292,0.0,0.0,81,0.00,OVC,,0.00,WeatherDisplay:10.37,2013-01-16 06:21:00,
2013-01-16 01:26:00,32.6,27.1,30.20,WNW,292,0.0,0.0,80,0.00,OVC,,0.00,WeatherDisplay:10.37,2013-01-16 06:26:00,
2013-01-16 01:31:00,32.7,26.9,30.20,SSW,202,0.0,0.0,79,0.00,OVC,,0.00,WeatherDisplay:10.37,2013-01-16 06:31:00,
2013-01-16 01:36:00,32.7,26.6,30.20,SSW,202,0.2,2.3,78,0.00,OVC,,0.00,WeatherDisplay:10.37,2013-01-16 06:36:00,
2013-01-16 01:41:00,32.8,27.0,30.20,WNW,292,0.2,1.2,79,0.00,OVC,,0.00,WeatherDisplay:10.37,2013-01-16 06:41:00,
2013-01-16 01:46:00,32.9,27.1,30.20,SW,225,0.3,1.2,79,0.00,OVC,,0.00,WeatherDisplay:10.37,2013-01-16 06:46:00,
2013-01-16 01:51:00,32.9,27.1,30.20,SW,225,0.0,0.0,79,0.00,OVC,,0.00,WeatherDisplay:10.37,2013-01-16 06:51:00,
2013-01-16 01:56:00,32.9,26.8,30.20,SW,225,0.0,0.0,78,0.00,OVC,,0.00,WeatherDisplay:10.37,2013-01-16 06:56:00,
2013-01-16 02:01:00,32.9,26.5,30.21,SW,225,0.0,0.0,77,0.00,OVC,,0.00,WeatherDisplay:10.37,2013-01-16 07:01:00,
2013-01-16 02:06:00,32.9,26.8,30.22,SW,225,0.0,0.0,78,0.00,OVC,,0.00,WeatherDisplay:10.37,2013-01-16 07:06:00,
2013-01-16 02:11:00,32.9,25.8,30.21,NW,315,0.0,1.2,75,0.00,OVC,,0.00,WeatherDisplay:10.37,2013-01-16 07:11:00,
2013-01-16 02:16:00,32.9,26.2,30.20,NW,315,0.0,0.0,76,0.00,OVC,,0.00,WeatherDisplay:10.37,2013-01-16 07:16:00,
2013-01-16 02:21:00,32.9,26.5,30.21,NW,315,0.0,0.0,77,0.00,OVC,,0.00,WeatherDisplay:10.37,2013-01-16 07:21:00,
2013-01-16 02:26:00,32.9,26.2,30.21,NW,315,0.0,0.0,76,0.00,OVC,,0.00,WeatherDisplay:10.37,2013-01-16 07:26:00,
2013-01-16 02:31:00,32.9,26.5,30.21,NW,315,0.0,0.0,77,0.00,OVC,,0.00,WeatherDisplay:10.37,2013-01-16 07:31:00,
2013-01-16 02:36:00,32.9,26.5,30.21,NW,315,0.6,1.2,77,0.00,OVC,,0.00,WeatherDisplay:10.37,2013-01-16 07:36:00,
2013-01-16 02:41:00,32.9,26.5,30.21,NW,315,0.0,0.0,77,0.00,OVC,,0.00,WeatherDisplay:10.37,2013-01-16 07:41:00,
2013-01-16 02:46:00,32.9,26.5,30.20,NW,315,0.0,0.0,77,0.00,OVC,,0.00,WeatherDisplay:10.37,2013-01-16 07:46:00,
2013-01-16 02:51:00,32.8,26.7,30.20,NW,315,0.0,0.0,78,0.00,OVC,,0.00,WeatherDisplay:10.37,2013-01-16 07:51:00,
2013-01-16 02:56:00,32.8,26.4,30.20,NW,315,0.0,0.0,77,0.00,OVC,,0.00,WeatherDisplay:10.37,2013-01-16 07:56:00,
2013-01-16 03:01:00,32.8,26.7,30.20,NW,315,0.0,0.0,78,0.00,OVC,,0.00,WeatherDisplay:10.37,2013-01-16 08:01:00,
2013-01-16 03:06:00,32.9,27.4,30.21,NW,315,0.8,2.3,80,0.00,OVC,,0.00,WeatherDisplay:10.37,2013-01-16 08:06:00,
2013-01-16 03:11:00,32.9,26.5,30.20,NE,45,0.6,2.3,77,0.00,OVC,,0.00,WeatherDisplay:10.37,2013-01-16 08:11:00,
2013-01-16 03:16:00,32.9,26.5,30.20,NNW,337,1.4,2.3,77,0.00,OVC,,0.00,WeatherDisplay:10.37,2013-01-16 08:16:00,
2013-01-16 03:21:00,32.9,26.5,30.19,NNW,337,0.0,0.0,77,0.00,OVC,,0.00,WeatherDisplay:10.37,2013-01-16 08:21:00,
2013-01-16 03:26:00,32.9,26.8,30.19,NNW,337,0.0,0.0,78,0.00,OVC,,0.00,WeatherDisplay:10.37,2013-01-16 08:26:00,
2013-01-16 03:31:00,32.9,26.8,30.19,NNW,337,0.0,0.0,78,0.00,OVC,,0.00,WeatherDisplay:10.37,2013-01-16 08:31:00,
2013-01-16 03:36:00,32.8,26.7,30.18,North,360,0.4,1.2,78,0.00,OVC,,0.00,WeatherDisplay:10.37,2013-01-16 08:36:00,
2013-01-16 03:41:00,32.7,27.2,30.18,North,360,0.0,0.0,80,0.00,OVC,,0.00,WeatherDisplay:10.37,2013-01-16 08:41:00,
2013-01-16 03:46:00,32.5,27.6,30.18,North,360,0.0,0.0,82,0.00,OVC,,0.00,WeatherDisplay:10.37,2013-01-16 08:46:00,
2013-01-16 03:51:00,32.3,27.7,30.17,North,360,0.0,0.0,83,0.00,OVC,,0.00,WeatherDisplay:10.37,2013-01-16 08:51:00,
2013-01-16 03:56:00,31.9,27.6,30.16,North,360,0.0,0.0,84,0.00,OVC,,0.00,WeatherDisplay:10.37,2013-01-16 08:56:00,
2013-01-16 04:01:00,31.7,28.3,30.17,WNW,292,0.8,2.3,87,0.00,-SN,,0.00,WeatherDisplay:10.37,2013-01-16 09:01:00,
2013-01-16 04:06:00,31.4,28.8,30.18,NW,315,0.7,2.3,90,0.00,-SN,,0.00,WeatherDisplay:10.37,2013-01-16 09:06:00,
2013-01-16 04:11:00,31.2,28.3,30.17,NNE,22,0.1,1.0,89,0.00,-SN,,0.00,WeatherDisplay:10.37,2013-01-16 09:11:00,
2013-01-16 04:16:00,31.0,28.7,30.17,NW,315,0.1,1.2,91,0.00,-SN,,0.00,WeatherDisplay:10.37,2013-01-16 09:16:00,
2013-01-16 04:21:00,30.9,28.9,30.17,NE,45,0.6,2.3,92,0.00,-SN,,0.00,WeatherDisplay:10.37,2013-01-16 09:21:00,
2013-01-16 04:26:00,30.8,29.3,30.17,West,270,0.6,2.3,94,0.00,-SN,,0.00,WeatherDisplay:10.37,2013-01-16 09:26:00,
2013-01-16 04:31:00,30.6,29.1,30.18,WNW,292,1.0,2.3,94,0.00,-SN,,0.00,WeatherDisplay:10.37,2013-01-16 09:31:00,
2013-01-16 04:36:00,30.7,29.2,30.18,NW,315,0.8,2.3,94,0.00,-SN,,0.00,WeatherDisplay:10.37,2013-01-16 09:36:00,
2013-01-16 04:42:00,30.4,28.9,30.19,NE,45,0.1,2.3,94,0.00,-SN,,0.00,WeatherDisplay:10.37,2013-01-16 09:42:00,
2013-01-16 04:46:00,30.3,28.8,30.19,NW,315,0.0,2.3,94,0.00,-SN,,0.00,WeatherDisplay:10.37,2013-01-16 09:46:00,
2013-01-16 04:52:00,30.2,28.7,30.19,NNW,337,0.2,2.3,94,0.00,-SN,,0.00,WeatherDisplay:10.37,2013-01-16 09:52:00,
2013-01-16 04:56:00,30.1,28.6,30.18,SSW,202,0.0,0.0,94,0.00,-SN,,0.00,WeatherDisplay:10.37,2013-01-16 09:56:00,
2013-01-16 05:02:00,30.0,28.5,30.17,SSW,202,0.0,0.0,94,0.00,-SN,,0.00,WeatherDisplay:10.37,2013-01-16 10:02:00,
2013-01-16 05:06:00,29.9,28.4,30.17,SSW,202,0.0,0.0,94,0.00,-SN,,0.00,WeatherDisplay:10.37,2013-01-16 10:06:00,
2013-01-16 05:12:00,29.9,28.4,30.17,SSW,202,0.0,0.0,94,0.00,-SN,,0.00,WeatherDisplay:10.37,2013-01-16 10:12:00,
2013-01-16 05:16:00,29.9,28.4,30.16,SSW,202,0.0,0.0,94,0.00,-SN,,0.00,WeatherDisplay:10.37,2013-01-16 10:16:00,
2013-01-16 05:22:00,29.8,28.3,30.16,SSW,202,0.0,0.0,94,0.00,-SN,,0.00,WeatherDisplay:10.37,2013-01-16 10:22:00,
2013-01-16 05:27:00,29.9,28.4,30.16,SSW,202,0.0,0.0,94,0.00,-SN,,0.00,WeatherDisplay:10.37,2013-01-16 10:27:00,
2013-01-16 05:32:00,29.9,28.4,30.16,SSW,202,0.0,0.0,94,0.00,-SN,,0.00,WeatherDisplay:10.37,2013-01-16 10:32:00,
2013-01-16 05:36:00,29.8,28.3,30.16,SSW,202,0.0,0.0,94,0.00,-SN,,0.00,WeatherDisplay:10.37,2013-01-16 10:36:00,
2013-01-16 05:42:00,29.8,28.3,30.16,SSW,202,0.0,0.0,94,0.00,-SN,,0.00,WeatherDisplay:10.37,2013-01-16 10:42:00,
2013-01-16 05:47:00,29.8,28.3,30.16,SSW,202,0.0,0.0,94,0.00,-SN,,0.00,WeatherDisplay:10.37,2013-01-16 10:47:00,
2013-01-16 05:52:00,29.8,28.3,30.16,SSW,202,0.0,0.0,94,0.00,-SN,,0.00,WeatherDisplay:10.37,2013-01-16 10:52:00,
2013-01-16 05:56:00,29.8,28.3,30.15,NNE,22,0.0,0.0,94,0.00,-SN,,0.00,WeatherDisplay:10.37,2013-01-16 10:56:00,
2013-01-16 06:02:00,29.8,28.3,30.15,NNE,22,0.0,0.0,94,0.00,-SN,,0.00,WeatherDisplay:10.37,2013-01-16 11:02:00,
2013-01-16 06:06:00,29.8,28.3,30.15,NNW,337,0.0,0.0,94,0.00,-SN,,0.00,WeatherDisplay:10.37,2013-01-16 11:06:00,
2013-01-16 06:12:00,29.8,28.3,30.15,NNW,337,0.0,0.0,94,0.00,-SN,,0.00,WeatherDisplay:10.37,2013-01-16 11:12:00,
2013-01-16 06:16:00,29.8,28.3,30.15,NE,45,0.0,0.0,94,0.00,-SN,,0.00,WeatherDisplay:10.37,2013-01-16 11:16:00,
2013-01-16 06:18:00,29.8,28.3,30.15,NNW,337,0.0,0.0,94,0.00,-SN,,0.00,WeatherDisplay:10.37,2013-01-16 11:18:00,
2013-01-16 06:22:00,29.8,28.3,30.15,NNW,337,0.0,0.0,94,0.00,-SN,,0.00,WeatherDisplay:10.37,2013-01-16 11:22:00,
2013-01-16 06:26:00,29.9,28.4,30.15,NNW,337,0.0,0.0,94,0.00,-SN,,0.00,WeatherDisplay:10.37,2013-01-16 11:26:00,
2013-01-16 06:32:00,29.9,28.4,30.15,WNW,292,0.0,0.0,94,0.00,-SN,,0.00,WeatherDisplay:10.37,2013-01-16 11:32:00,
2013-01-16 06:36:00,29.8,28.3,30.15,North,360,0.0,0.0,94,0.00,-SN,,0.00,WeatherDisplay:10.37,2013-01-16 11:36:00,
2013-01-16 06:42:00,29.8,28.3,30.15,West,270,0.0,0.0,94,0.00,-SN,,0.00,WeatherDisplay:10.37,2013-01-16 11:42:00,
2013-01-16 06:46:00,29.8,28.3,30.14,NNW,337,0.0,0.0,94,0.00,-SN,,0.00,WeatherDisplay:10.37,2013-01-16 11:46:00,
2013-01-16 06:50:00,29.7,28.2,30.14,North,360,0.0,0.0,94,0.00,-SN,,0.00,WeatherDisplay:10.37,2013-01-16 11:50:00,
2013-01-16 06:52:00,29.8,28.3,30.14,NNW,337,0.0,0.0,94,0.00,-SN,,0.00,WeatherDisplay:10.37,2013-01-16 11:52:00,
2013-01-16 06:56:00,29.8,28.3,30.14,West,270,0.0,0.0,94,0.00,-SN,,0.00,WeatherDisplay:10.37,2013-01-16 11:56:00,
2013-01-16 07:02:00,29.7,28.2,30.14,North,360,0.0,0.0,94,0.00,-SN,,0.00,WeatherDisplay:10.37,2013-01-16 12:02:00,
2013-01-16 07:06:00,29.7,28.2,30.14,SW,225,0.0,0.0,94,0.00,,,0.00,WeatherDisplay:10.37,2013-01-16 12:06:00,
2013-01-16 07:12:00,29.7,28.2,30.14,North,360,0.0,0.0,94,0.00,,,0.00,WeatherDisplay:10.37,2013-01-16 12:12:00,
2013-01-16 07:16:00,29.7,28.2,30.14,SSE,157,0.0,0.0,94,0.00,,,0.00,WeatherDisplay:10.37,2013-01-16 12:16:00,
2013-01-16 07:22:00,29.6,28.1,30.14,NNW,337,0.0,0.0,94,0.00,,,0.00,WeatherDisplay:10.37,2013-01-16 12:22:00,
2013-01-16 07:27:00,29.6,28.1,30.14,NNW,337,0.0,0.0,94,0.00,,,0.00,WeatherDisplay:10.37,2013-01-16 12:27:00,
2013-01-16 07:32:00,29.5,28.0,30.14,SW,225,0.0,0.0,94,0.00,,,0.00,WeatherDisplay:10.37,2013-01-16 12:32:00,
2013-01-16 07:37:00,29.5,28.0,30.14,NNW,337,0.0,0.0,94,0.00,,,0.00,WeatherDisplay:10.37,2013-01-16 12:37:00,
2013-01-16 07:42:00,29.5,28.0,30.14,SE,135,0.0,0.0,94,0.00,,,0.00,WeatherDisplay:10.37,2013-01-16 12:42:00,
2013-01-16 07:47:00,29.5,28.0,30.13,NNW,337,0.0,0.0,94,0.00,,,0.00,WeatherDisplay:10.37,2013-01-16 12:47:00,
2013-01-16 07:52:00,29.5,28.0,30.13,South,180,0.0,0.0,94,0.00,,,0.00,WeatherDisplay:10.37,2013-01-16 12:52:00,
2013-01-16 07:57:00,29.5,28.0,30.13,North,360,0.0,0.0,94,0.00,-SN,,0.00,WeatherDisplay:10.37,2013-01-16 12:57:00,
2013-01-16 08:02:00,29.6,28.1,30.13,SW,225,0.0,0.0,94,0.00,-SN,,0.00,WeatherDisplay:10.37,2013-01-16 13:02:00,
2013-01-16 08:06:00,29.6,28.1,30.13,North,360,0.0,0.0,94,0.00,-SN,,0.00,WeatherDisplay:10.37,2013-01-16 13:06:00,
2013-01-16 08:12:00,29.7,28.2,30.13,WNW,292,0.0,0.0,94,0.00,-SN,,0.00,WeatherDisplay:10.37,2013-01-16 13:12:00,
2013-01-16 08:17:00,29.7,28.2,30.13,SSW,202,0.0,0.0,94,0.00,-SN,,0.00,WeatherDisplay:10.37,2013-01-16 13:17:00,
2013-01-16 08:22:00,29.8,28.3,30.13,SSW,202,0.0,0.0,94,0.00,-SN,,0.00,WeatherDisplay:10.37,2013-01-16 13:22:00,
2013-01-16 08:27:00,29.8,28.3,30.14,WNW,292,0.0,0.0,94,0.00,-SN,,0.00,WeatherDisplay:10.37,2013-01-16 13:27:00,
2013-01-16 08:32:00,29.9,28.4,30.14,WNW,292,0.0,0.0,94,0.00,-SN,,0.00,WeatherDisplay:10.37,2013-01-16 13:32:00,
2013-01-16 08:37:00,29.9,28.4,30.14,WSW,247,0.0,0.0,94,0.00,-SN,,0.00,WeatherDisplay:10.37,2013-01-16 13:37:00,
2013-01-16 08:42:00,29.9,28.4,30.14,WSW,247,0.0,0.0,94,0.00,-SN,,0.00,WeatherDisplay:10.37,2013-01-16 13:42:00,
2013-01-16 08:47:00,30.1,28.6,30.14,WSW,247,0.0,0.0,94,0.00,-SN,,0.00,WeatherDisplay:10.37,2013-01-16 13:47:00,
2013-01-16 08:52:00,30.1,28.6,30.13,WSW,247,0.0,0.0,94,0.00,-SN,,0.00,WeatherDisplay:10.37,2013-01-16 13:52:00,
2013-01-16 08:57:00,30.3,28.8,30.13,WSW,247,0.0,0.0,94,0.00,-SN,,0.00,WeatherDisplay:10.37,2013-01-16 13:57:00,
2013-01-16 09:02:00,30.5,29.0,30.12,WSW,247,0.0,0.0,94,0.00,-SN,,0.00,WeatherDisplay:10.37,2013-01-16 14:02:00,
2013-01-16 09:07:00,30.6,29.1,30.12,WSW,247,0.0,0.0,94,0.00,-SN,,0.00,WeatherDisplay:10.37,2013-01-16 14:07:00,
2013-01-16 09:12:00,30.6,29.1,30.11,WSW,247,0.0,0.0,94,0.00,-SN,,0.00,WeatherDisplay:10.37,2013-01-16 14:12:00,
2013-01-16 09:17:00,30.9,29.4,30.10,WSW,247,0.0,0.0,94,0.00,-SN,,0.00,WeatherDisplay:10.37,2013-01-16 14:17:00,
2013-01-16 09:22:00,31.1,29.8,30.10,WSW,247,0.0,0.0,95,0.00,-SN,,0.00,WeatherDisplay:10.37,2013-01-16 14:22:00,
2013-01-16 09:27:00,31.1,29.8,30.09,WSW,247,0.0,0.0,95,0.00,-SN,,0.00,WeatherDisplay:10.37,2013-01-16 14:27:00,
2013-01-16 09:32:00,31.2,29.9,30.08,WSW,247,0.0,0.0,95,0.00,-SN,,0.00,WeatherDisplay:10.37,2013-01-16 14:32:00,
2013-01-16 09:37:00,31.3,30.0,30.08,WSW,247,0.0,0.0,95,0.00,-SN,,0.00,WeatherDisplay:10.37,2013-01-16 14:37:00,
2013-01-16 09:42:00,31.5,30.2,30.07,WSW,247,0.0,0.0,95,0.00,-SN,,0.00,WeatherDisplay:10.37,2013-01-16 14:42:00,
2013-01-16 09:47:00,31.6,30.3,30.06,WSW,247,0.0,0.0,95,0.00,-SN,,0.00,WeatherDisplay:10.37,2013-01-16 14:47:00,
2013-01-16 09:52:00,31.6,30.3,30.06,WSW,247,0.0,1.2,95,0.00,OVC,,0.00,WeatherDisplay:10.37,2013-01-16 14:52:00,
2013-01-16 09:57:00,31.7,30.4,30.05,WSW,247,0.0,0.0,95,0.00,OVC,,0.00,WeatherDisplay:10.37,2013-01-16 14:57:00,
2013-01-16 10:02:00,31.7,30.4,30.04,WSW,247,0.0,0.0,95,0.00,OVC,,0.00,WeatherDisplay:10.37,2013-01-16 15:02:00,
2013-01-16 10:07:00,31.8,30.5,30.05,WSW,247,0.0,2.3,95,0.00,OVC,,0.00,WeatherDisplay:10.37,2013-01-16 15:07:00,
2013-01-16 10:12:00,31.9,30.6,30.04,WSW,247,0.0,0.0,95,0.00,OVC,,0.00,WeatherDisplay:10.37,2013-01-16 15:12:00,
2013-01-16 10:17:00,31.9,30.6,30.04,SW,225,0.0,1.2,95,0.00,OVC,,0.00,WeatherDisplay:10.37,2013-01-16 15:17:00,
2013-01-16 10:22:00,32.1,30.8,30.03,SW,225,0.2,2.3,95,0.00,OVC,,0.00,WeatherDisplay:10.37,2013-01-16 15:22:00,
2013-01-16 10:27:00,32.1,30.8,30.01,SW,225,0.5,2.3,95,0.00,OVC,,0.00,WeatherDisplay:10.37,2013-01-16 15:27:00,
2013-01-16 10:32:00,32.2,30.9,30.00,SSW,202,0.9,1.0,95,0.00,OVC,,0.00,WeatherDisplay:10.37,2013-01-16 15:32:00,
2013-01-16 10:37:00,32.3,31.0,30.00,SSW,202,0.1,2.3,95,0.00,OVC,,0.00,WeatherDisplay:10.37,2013-01-16 15:37:00,
2013-01-16 10:42:00,32.3,31.0,30.00,NE,45,0.2,2.3,95,0.00,OVC,,0.00,WeatherDisplay:10.37,2013-01-16 15:42:00,
2013-01-16 10:47:00,32.4,31.1,30.00,NNE,22,0.0,0.0,95,0.00,OVC,,0.00,WeatherDisplay:10.37,2013-01-16 15:47:00,
2013-01-16 10:52:00,32.5,31.2,30.00,WNW,292,0.5,2.3,95,0.00,OVC,,0.00,WeatherDisplay:10.37,2013-01-16 15:52:00,
2013-01-16 10:57:00,32.6,31.3,30.00,NNW,337,1.2,2.3,95,0.00,OVC,,0.00,WeatherDisplay:10.37,2013-01-16 15:57:00,
2013-01-16 11:02:00,32.6,31.3,30.00,North,360,0.5,2.3,95,0.00,OVC,,0.00,WeatherDisplay:10.37,2013-01-16 16:02:00,
2013-01-16 11:07:00,32.5,31.2,30.00,NE,45,0.0,1.2,95,0.00,OVC,,0.00,WeatherDisplay:10.37,2013-01-16 16:07:00,
2013-01-16 11:12:00,32.4,31.1,30.00,WSW,247,0.6,3.5,95,0.00,OVC,,0.00,WeatherDisplay:10.37,2013-01-16 16:12:00,
2013-01-16 11:17:00,32.4,31.1,30.00,WSW,247,0.8,2.3,95,0.00,OVC,,0.00,WeatherDisplay:10.37,2013-01-16 16:17:00,
2013-01-16 11:22:00,32.2,30.9,30.00,North,360,1.2,4.6,95,0.00,OVC,,0.00,WeatherDisplay:10.37,2013-01-16 16:22:00,
2013-01-16 11:27:00,32.2,30.9,30.00,NE,45,1.1,2.3,95,0.00,OVC,,0.00,WeatherDisplay:10.37,2013-01-16 16:27:00,
2013-01-16 11:32:00,32.2,30.9,30.00,SE,135,0.7,2.3,95,0.00,OVC,,0.00,WeatherDisplay:10.37,2013-01-16 16:32:00,
2013-01-16 11:37:00,32.3,31.0,30.00,North,360,0.1,2.3,95,0.00,OVC,,0.00,WeatherDisplay:10.37,2013-01-16 16:37:00,
2013-01-16 11:42:00,32.3,31.0,30.00,NE,45,0.9,2.3,95,0.00,OVC,,0.00,WeatherDisplay:10.37,2013-01-16 16:42:00,
2013-01-16 11:47:00,32.4,31.1,29.99,NW,315,0.6,2.3,95,0.00,OVC,,0.00,WeatherDisplay:10.37,2013-01-16 16:47:00,
2013-01-16 11:52:00,32.4,31.1,29.98,North,360,0.9,2.3,95,0.00,OVC,,0.00,WeatherDisplay:10.37,2013-01-16 16:52:00,
2013-01-16 11:57:00,32.4,31.1,29.98,NNW,337,1.3,2.3,95,0.00,OVC,,0.00,WeatherDisplay:10.37,2013-01-16 16:57:00,
2013-01-16 12:02:00,32.3,31.0,29.98,NE,45,0.6,2.3,95,0.00,OVC,,0.00,WeatherDisplay:10.37,2013-01-16 17:02:00,
2013-01-16 12:07:00,32.4,31.1,29.98,NNW,337,0.8,2.3,95,0.00,-RA,,0.00,WeatherDisplay:10.37,2013-01-16 17:07:00,
2013-01-16 12:12:00,32.4,31.1,29.99,NW,315,1.3,2.0,95,0.00,-RA,,0.00,WeatherDisplay:10.37,2013-01-16 17:12:00,
2013-01-16 12:17:00,32.4,31.1,29.99,WNW,292,1.1,2.3,95,0.00,-RA,,0.00,WeatherDisplay:10.37,2013-01-16 17:17:00,
2013-01-16 12:22:00,32.4,31.1,29.99,West,270,0.6,2.3,95,0.00,-RA,,0.00,WeatherDisplay:10.37,2013-01-16 17:22:00,
2013-01-16 12:27:00,32.5,31.2,29.98,NNE,22,0.8,2.0,95,0.00,-RA,,0.00,WeatherDisplay:10.37,2013-01-16 17:27:00,
2013-01-16 12:32:00,32.4,31.1,29.98,North,360,0.4,1.2,95,0.00,-RA,,0.00,WeatherDisplay:10.37,2013-01-16 17:32:00,
2013-01-16 12:37:00,32.4,31.1,29.97,NW,315,2.1,3.5,95,0.00,-RA,,0.00,WeatherDisplay:10.37,2013-01-16 17:37:00,
2013-01-16 12:42:00,32.4,31.1,29.97,NE,45,0.0,1.2,95,0.00,-RA,,0.00,WeatherDisplay:10.37,2013-01-16 17:42:00,
2013-01-16 12:47:00,32.4,31.1,29.97,NE,45,0.0,0.0,95,0.00,-RA,,0.00,WeatherDisplay:10.37,2013-01-16 17:47:00,
2013-01-16 12:52:00,32.4,31.1,29.97,NNE,22,0.6,1.2,95,0.00,-RA,,0.00,WeatherDisplay:10.37,2013-01-16 17:52:00,
2013-01-16 12:57:00,32.4,31.1,29.97,NW,315,0.2,2.3,95,0.00,-RA,,0.00,WeatherDisplay:10.37,2013-01-16 17:57:00,
2013-01-16 13:02:00,32.4,31.1,29.97,North,360,1.0,2.3,95,0.00,-RA,,0.00,WeatherDisplay:10.37,2013-01-16 18:02:00,
2013-01-16 13:07:00,32.4,31.1,29.98,West,270,0.7,2.0,95,0.00,-RA,,0.00,WeatherDisplay:10.37,2013-01-16 18:07:00,
2013-01-16 13:12:00,32.4,31.1,29.98,West,270,1.5,2.3,95,0.00,-RA,,0.00,WeatherDisplay:10.37,2013-01-16 18:12:00,
2013-01-16 13:17:00,32.3,31.0,29.97,WNW,292,1.1,2.3,95,0.00,-RA,,0.00,WeatherDisplay:10.37,2013-01-16 18:17:00,
2013-01-16 13:22:00,32.3,31.0,29.96,NW,315,0.0,0.0,95,0.00,-RA,,0.00,WeatherDisplay:10.37,2013-01-16 18:22:00,
2013-01-16 13:27:00,32.3,31.0,29.95,NE,45,1.8,3.5,95,0.00,OVC,,0.00,WeatherDisplay:10.37,2013-01-16 18:27:00,
2013-01-16 13:32:00,32.3,31.0,29.95,WNW,292,1.2,0.0,95,0.00,OVC,,0.00,WeatherDisplay:10.37,2013-01-16 18:32:00,
2013-01-16 13:37:00,32.4,31.1,29.94,NNW,337,0.0,0.0,95,0.00,OVC,,0.00,WeatherDisplay:10.37,2013-01-16 18:37:00,
2013-01-16 13:42:00,32.4,31.1,29.94,NW,315,1.7,2.3,95,0.00,OVC,,0.00,WeatherDisplay:10.37,2013-01-16 18:42:00,
2013-01-16 13:47:00,32.4,31.1,29.94,NE,45,0.9,2.3,95,0.00,OVC,,0.00,WeatherDisplay:10.37,2013-01-16 18:47:00,
2013-01-16 13:52:00,32.4,31.1,29.92,NE,45,0.3,2.3,95,0.00,OVC,,0.00,WeatherDisplay:10.37,2013-01-16 18:52:00,
2013-01-16 13:57:00,32.4,31.1,29.91,NE,45,0.2,2.3,95,0.00,OVC,,0.00,WeatherDisplay:10.37,2013-01-16 18:57:00,
2013-01-16 14:02:00,32.5,31.2,29.92,NE,45,0.3,2.0,95,0.00,OVC,,0.00,WeatherDisplay:10.37,2013-01-16 19:02:00,
2013-01-16 14:07:00,32.4,31.1,29.90,NE,45,0.5,2.3,95,0.00,OVC,,0.00,WeatherDisplay:10.37,2013-01-16 19:07:00,
2013-01-16 14:12:00,32.4,31.1,29.88,NW,315,0.7,2.3,95,0.00,OVC,,0.00,WeatherDisplay:10.37,2013-01-16 19:12:00,
2013-01-16 14:17:00,32.4,31.1,29.88,NE,45,0.4,2.3,95,0.00,OVC,,0.00,WeatherDisplay:10.37,2013-01-16 19:17:00,
2013-01-16 14:22:00,32.3,31.0,29.91,WNW,292,2.0,5.8,95,0.00,OVC,,0.00,WeatherDisplay:10.37,2013-01-16 19:22:00,
2013-01-16 14:27:00,32.4,31.1,29.91,WSW,247,0.5,2.3,95,0.00,OVC,,0.00,WeatherDisplay:10.37,2013-01-16 19:27:00,
2013-01-16 14:32:00,32.4,31.1,29.91,WNW,292,2.6,2.6,95,0.00,OVC,,0.00,WeatherDisplay:10.37,2013-01-16 19:32:00,
2013-01-16 14:37:00,32.4,31.1,29.91,WSW,247,0.9,2.3,95,0.00,OVC,,0.00,WeatherDisplay:10.37,2013-01-16 19:37:00,
2013-01-16 14:42:00,32.4,31.1,29.88,SW,225,0.0,0.0,95,0.00,OVC,,0.00,WeatherDisplay:10.37,2013-01-16 19:42:00,
2013-01-16 14:47:00,32.4,31.1,29.90,WNW,292,1.5,2.3,95,0.00,OVC,,0.00,WeatherDisplay:10.37,2013-01-16 19:47:00,
2013-01-16 14:52:00,32.4,31.1,29.92,West,270,1.4,3.5,95,0.00,OVC,,0.00,WeatherDisplay:10.37,2013-01-16 19:52:00,
2013-01-16 14:57:00,32.4,31.1,29.92,NE,45,1.4,2.3,95,0.00,OVC,,0.00,WeatherDisplay:10.37,2013-01-16 19:57:00,
2013-01-16 15:02:00,32.4,31.1,29.91,WNW,292,1.7,3.5,95,0.00,OVC,,0.00,WeatherDisplay:10.37,2013-01-16 20:02:00,
2013-01-16 15:07:00,32.4,31.1,29.91,NE,45,1.4,2.3,95,0.00,OVC,,0.00,WeatherDisplay:10.37,2013-01-16 20:07:00,
2013-01-16 15:12:00,32.4,31.1,29.91,West,270,0.6,2.3,95,0.00,OVC,,0.00,WeatherDisplay:10.37,2013-01-16 20:12:00,
2013-01-16 15:17:00,32.4,31.1,29.90,West,270,0.0,0.0,95,0.00,OVC,,0.00,WeatherDisplay:10.37,2013-01-16 20:17:00,
2013-01-16 15:22:00,32.4,31.1,29.91,North,360,1.6,1.6,95,0.00,OVC,,0.00,WeatherDisplay:10.37,2013-01-16 20:22:00,
2013-01-16 15:27:00,32.4,31.1,29.93,West,270,0.6,1.2,95,0.00,OVC,,0.00,WeatherDisplay:10.37,2013-01-16 20:27:00,
2013-01-16 15:32:00,32.4,31.1,29.93,WNW,292,0.9,3.5,95,0.00,OVC,,0.00,WeatherDisplay:10.37,2013-01-16 20:32:00,
2013-01-16 15:37:00,32.4,31.1,29.92,NW,315,1.6,2.3,95,0.00,OVC,,0.00,WeatherDisplay:10.37,2013-01-16 20:37:00,
2013-01-16 15:42:00,32.3,31.0,29.92,NE,45,0.3,1.2,95,0.00,OVC,,0.00,WeatherDisplay:10.37,2013-01-16 20:42:00,
2013-01-16 15:47:00,32.3,31.0,29.92,NW,315,1.6,3.5,95,0.00,OVC,,0.00,WeatherDisplay:10.37,2013-01-16 20:47:00,
2013-01-16 15:52:00,32.3,31.0,29.92,WSW,247,1.2,2.3,95,0.00,OVC,,0.00,WeatherDisplay:10.37,2013-01-16 20:52:00,
2013-01-16 15:57:00,32.3,31.0,29.92,West,270,1.9,2.3,95,0.00,OVC,,0.00,WeatherDisplay:10.37,2013-01-16 20:57:00,
2013-01-16 16:02:00,32.3,31.0,29.92,WSW,247,1.6,3.5,95,0.00,OVC,,0.00,WeatherDisplay:10.37,2013-01-16 21:02:00,
2013-01-16 16:07:00,32.3,31.0,29.92,NE,45,1.0,2.3,95,0.00,OVC,,0.00,WeatherDisplay:10.37,2013-01-16 21:07:00,
2013-01-16 16:12:00,32.3,31.0,29.92,North,360,1.6,2.3,95,0.00,OVC,,0.00,WeatherDisplay:10.37,2013-01-16 21:12:00,
2013-01-16 16:17:00,32.3,31.0,29.92,WSW,247,1.0,2.3,95,0.00,OVC,,0.00,WeatherDisplay:10.37,2013-01-16 21:17:00,
2013-01-16 16:22:00,32.3,31.0,29.93,North,360,0.1,2.3,95,0.00,OVC,,0.00,WeatherDisplay:10.37,2013-01-16 21:22:00,
2013-01-16 16:27:00,32.3,31.0,29.93,NW,315,1.4,2.3,95,0.00,OVC,,0.00,WeatherDisplay:10.37,2013-01-16 21:27:00,
2013-01-16 16:32:00,32.3,31.0,29.94,WNW,292,1.3,2.3,95,0.00,OVC,,0.00,WeatherDisplay:10.37,2013-01-16 21:32:00,
2013-01-16 16:37:00,32.3,31.0,29.93,WSW,247,1.0,2.0,95,0.00,OVC,,0.00,WeatherDisplay:10.37,2013-01-16 21:37:00,
2013-01-16 16:42:00,32.3,31.0,29.93,WSW,247,1.0,2.3,95,0.00,OVC,,0.00,WeatherDisplay:10.37,2013-01-16 21:42:00,
2013-01-16 16:47:00,32.3,31.0,29.93,WSW,247,0.8,2.3,95,0.00,OVC,,0.00,WeatherDisplay:10.37,2013-01-16 21:47:00,
2013-01-16 16:52:00,32.3,31.0,29.92,WSW,247,0.0,0.0,95,0.00,OVC,,0.00,WeatherDisplay:10.37,2013-01-16 21:52:00,
2013-01-16 16:57:00,32.3,31.0,29.93,WNW,292,1.1,1.2,95,0.00,OVC,,0.00,WeatherDisplay:10.37,2013-01-16 21:57:00,
2013-01-16 17:02:00,32.3,31.0,29.93,WNW,292,0.2,1.2,95,0.00,OVC,,0.00,WeatherDisplay:10.37,2013-01-16 22:02:00,
2013-01-16 17:07:00,32.3,31.0,29.94,West,270,1.0,2.3,95,0.00,OVC,,0.00,WeatherDisplay:10.37,2013-01-16 22:07:00,
2013-01-16 17:12:00,32.3,31.0,29.94,West,270,0.0,0.0,95,0.00,OVC,,0.00,WeatherDisplay:10.37,2013-01-16 22:12:00,
2013-01-16 17:17:00,32.3,31.0,29.93,SE,135,0.9,2.3,95,0.00,OVC,,0.00,WeatherDisplay:10.37,2013-01-16 22:17:00,
2013-01-16 17:22:00,32.3,31.0,29.92,SE,135,1.1,2.3,95,0.00,OVC,,0.00,WeatherDisplay:10.37,2013-01-16 22:22:00,
2013-01-16 17:27:00,32.3,31.0,29.94,SE,135,0.9,2.3,95,0.00,OVC,,0.00,WeatherDisplay:10.37,2013-01-16 22:27:00,
2013-01-16 17:32:00,32.3,31.0,29.93,SE,135,0.0,0.0,95,0.00,OVC,,0.00,WeatherDisplay:10.37,2013-01-16 22:32:00,
2013-01-16 17:37:00,32.3,31.0,29.94,WNW,292,1.5,2.3,95,0.00,OVC,,0.00,WeatherDisplay:10.37,2013-01-16 22:37:00,
2013-01-16 17:42:00,32.3,31.0,29.94,WNW,292,0.0,1.0,95,0.00,OVC,,0.00,WeatherDisplay:10.37,2013-01-16 22:42:00,
2013-01-16 17:47:00,32.3,31.0,29.94,WNW,292,0.2,1.2,95,0.00,OVC,,0.00,WeatherDisplay:10.37,2013-01-16 22:47:00,
2013-01-16 17:52:00,32.3,31.0,29.94,WNW,292,0.0,1.2,95,0.01,RA,,0.01,WeatherDisplay:10.37,2013-01-16 22:52:00,
2013-01-16 17:57:00,32.3,31.0,29.94,WNW,292,0.0,0.0,95,0.01,RA,,0.01,WeatherDisplay:10.37,2013-01-16 22:57:00,
2013-01-16 18:02:00,32.3,31.0,29.93,WNW,292,0.0,0.0,95,0.01,OVC,,0.01,WeatherDisplay:10.37,2013-01-16 23:02:00,
2013-01-16 18:07:00,32.3,31.0,29.94,WNW,292,0.0,0.0,95,0.01,OVC,,0.01,WeatherDisplay:10.37,2013-01-16 23:07:00,
2013-01-16 18:12:00,32.3,31.0,29.92,WNW,292,0.0,0.0,95,0.01,OVC,,0.01,WeatherDisplay:10.37,2013-01-16 23:12:00,
2013-01-16 18:17:00,32.3,31.0,29.94,WNW,292,0.1,1.0,95,0.01,OVC,,0.01,WeatherDisplay:10.37,2013-01-16 23:17:00,
2013-01-16 18:22:00,32.3,31.0,29.94,WNW,292,0.0,0.0,95,0.01,OVC,,0.01,WeatherDisplay:10.37,2013-01-16 23:22:00,
2013-01-16 18:27:00,32.3,31.0,29.94,WNW,292,0.0,0.0,95,0.01,OVC,,0.01,WeatherDisplay:10.37,2013-01-16 23:27:00,
2013-01-16 18:32:00,32.3,31.0,29.94,WNW,292,0.0,0.0,95,0.01,OVC,,0.01,WeatherDisplay:10.37,2013-01-16 23:32:00,
2013-01-16 18:37:00,32.3,31.0,29.94,WNW,292,0.0,0.0,95,0.01,OVC,,0.01,WeatherDisplay:10.37,2013-01-16 23:37:00,
2013-01-16 18:42:00,32.3,31.0,29.94,WNW,292,0.0,0.0,95,0.01,OVC,,0.01,WeatherDisplay:10.37,2013-01-16 23:42:00,
2013-01-16 18:47:00,32.3,31.0,29.93,WNW,292,0.0,0.0,95,0.01,OVC,,0.01,WeatherDisplay:10.37,2013-01-16 23:47:00,
2013-01-16 18:52:00,32.3,31.0,29.94,WNW,292,0.0,0.0,95,0.00,OVC,,0.01,WeatherDisplay:10.37,2013-01-16 23:52:00,
2013-01-16 18:57:00,32.3,31.0,29.93,WNW,292,0.0,0.0,95,0.00,OVC,,0.01,WeatherDisplay:10.37,2013-01-16 23:57:00,
2013-01-16 19:02:00,32.3,31.0,29.93,WNW,292,0.0,0.0,95,0.00,OVC,,0.01,WeatherDisplay:10.37,2013-01-17 00:02:00,
2013-01-16 19:07:00,32.3,31.0,29.93,WNW,292,0.5,1.2,95,0.00,OVC,,0.01,WeatherDisplay:10.37,2013-01-17 00:07:00,
2013-01-16 19:12:00,32.3,31.0,29.93,WNW,292,0.0,0.0,95,0.00,OVC,,0.01,WeatherDisplay:10.37,2013-01-17 00:12:00,
2013-01-16 19:17:00,32.3,31.0,29.93,WNW,292,0.0,0.0,95,0.00,OVC,,0.01,WeatherDisplay:10.37,2013-01-17 00:17:00,
2013-01-16 19:22:00,32.3,31.0,29.93,WNW,292,0.0,0.0,95,0.00,OVC,,0.01,WeatherDisplay:10.37,2013-01-17 00:22:00,
2013-01-16 19:27:00,32.3,31.0,29.93,WNW,292,0.0,0.0,95,0.00,OVC,,0.01,WeatherDisplay:10.37,2013-01-17 00:27:00,
2013-01-16 19:32:00,32.2,30.9,29.93,WNW,292,0.0,0.0,95,0.00,OVC,,0.01,WeatherDisplay:10.37,2013-01-17 00:32:00,
2013-01-16 19:37:00,32.2,30.9,29.93,WNW,292,0.0,0.0,95,0.00,OVC,,0.01,WeatherDisplay:10.37,2013-01-17 00:37:00,
2013-01-16 19:42:00,32.2,30.9,29.92,WNW,292,0.0,0.0,95,0.00,OVC,,0.01,WeatherDisplay:10.37,2013-01-17 00:42:00,
2013-01-16 19:47:00,32.2,30.9,29.92,WNW,292,0.0,0.0,95,0.00,OVC,,0.01,WeatherDisplay:10.37,2013-01-17 00:47:00,
2013-01-16 19:52:00,32.2,30.9,29.92,WNW,292,0.0,0.0,95,0.00,OVC,,0.01,WeatherDisplay:10.37,2013-01-17 00:52:00,
2013-01-16 19:57:00,32.2,30.9,29.92,WNW,292,0.0,0.0,95,0.00,OVC,,0.01,WeatherDisplay:10.37,2013-01-17 00:57:00,
2013-01-16 20:02:00,32.2,30.9,29.93,WNW,292,1.1,2.3,95,0.00,OVC,,0.01,WeatherDisplay:10.37,2013-01-17 01:02:00,
2013-01-16 20:07:00,32.2,30.9,29.93,WNW,292,0.0,0.0,95,0.00,OVC,,0.01,WeatherDisplay:10.37,2013-01-17 01:07:00,
2013-01-16 20:12:00,32.3,31.0,29.94,WNW,292,0.3,1.2,95,0.00,OVC,,0.01,WeatherDisplay:10.37,2013-01-17 01:12:00,
2013-01-16 20:17:00,32.3,31.0,29.94,North,360,0.0,1.2,95,0.00,OVC,,0.01,WeatherDisplay:10.37,2013-01-17 01:17:00,
2013-01-16 20:22:00,32.3,31.0,29.94,North,360,0.0,0.0,95,0.00,OVC,,0.01,WeatherDisplay:10.37,2013-01-17 01:22:00,
2013-01-16 20:27:00,32.3,31.0,29.94,North,360,0.0,0.0,95,0.00,OVC,,0.01,WeatherDisplay:10.37,2013-01-17 01:27:00,
2013-01-16 20:32:00,32.3,31.0,29.94,SW,225,0.0,0.0,95,0.00,OVC,,0.01,WeatherDisplay:10.37,2013-01-17 01:32:00,
2013-01-16 20:37:00,32.3,31.0,29.94,SW,225,0.0,0.0,95,0.00,OVC,,0.01,WeatherDisplay:10.37,2013-01-17 01:37:00,
2013-01-16 20:42:00,32.3,31.0,29.94,SW,225,0.0,0.0,95,0.00,OVC,,0.01,WeatherDisplay:10.37,2013-01-17 01:42:00,
2013-01-16 20:47:00,32.3,31.0,29.94,SW,225,0.0,0.0,95,0.00,OVC,,0.01,WeatherDisplay:10.37,2013-01-17 01:47:00,
2013-01-16 20:52:00,32.3,31.0,29.94,SW,225,0.0,0.0,95,0.00,OVC,,0.01,WeatherDisplay:10.37,2013-01-17 01:52:00,
2013-01-16 20:57:00,32.3,31.0,29.94,SW,225,0.0,0.0,95,0.00,OVC,,0.01,WeatherDisplay:10.37,2013-01-17 01:57:00,
2013-01-16 21:02:00,32.3,31.0,29.94,SW,225,0.0,0.0,95,0.01,RA,,0.02,WeatherDisplay:10.37,2013-01-17 02:02:00,
2013-01-16 21:07:00,32.3,31.0,29.94,SW,225,0.0,0.0,95,0.01,RA,,0.02,WeatherDisplay:10.37,2013-01-17 02:07:00,
2013-01-16 21:12:00,32.3,31.0,29.93,SW,225,0.0,0.0,95,0.01,OVC,,0.02,WeatherDisplay:10.37,2013-01-17 02:12:00,
2013-01-16 21:17:00,32.2,30.9,29.93,SW,225,0.0,0.0,95,0.01,OVC,,0.02,WeatherDisplay:10.37,2013-01-17 02:17:00,
2013-01-16 21:22:00,32.2,30.9,29.93,SW,225,0.0,0.0,95,0.01,OVC,,0.02,WeatherDisplay:10.37,2013-01-17 02:22:00,
2013-01-16 21:27:00,32.3,31.0,29.93,SW,225,0.0,0.0,95,0.01,OVC,,0.02,WeatherDisplay:10.37,2013-01-17 02:27:00,
2013-01-16 21:32:00,32.2,30.9,29.93,SW,225,0.0,0.0,95,0.01,OVC,,0.02,WeatherDisplay:10.37,2013-01-17 02:32:00,
2013-01-16 21:37:00,32.2,30.9,29.94,SW,225,0.0,0.0,95,0.01,OVC,,0.02,WeatherDisplay:10.37,2013-01-17 02:37:00,
2013-01-16 21:42:00,32.2,30.9,29.93,SW,225,0.0,0.0,95,0.01,OVC,,0.02,WeatherDisplay:10.37,2013-01-17 02:42:00,
2013-01-16 21:47:00,32.2,30.9,29.94,SW,225,0.0,0.0,95,0.01,OVC,,0.02,WeatherDisplay:10.37,2013-01-17 02:47:00,
2013-01-16 21:52:00,32.2,30.9,29.94,SW,225,0.0,0.0,95,0.01,OVC,,0.02,WeatherDisplay:10.37,2013-01-17 02:52:00,
2013-01-16 21:57:00,32.2,30.9,29.94,SW,225,0.0,0.0,95,0.01,OVC,,0.02,WeatherDisplay:10.37,2013-01-17 02:57:00,
2013-01-16 22:02:00,32.3,31.0,29.94,SW,225,0.0,0.0,95,0.00,OVC,,0.02,WeatherDisplay:10.37,2013-01-17 03:02:00,
2013-01-16 22:07:00,32.3,31.0,29.93,SW,225,0.0,0.0,95,0.01,RA,,0.03,WeatherDisplay:10.37,2013-01-17 03:07:00,
2013-01-16 22:12:00,32.3,31.0,29.94,SW,225,0.0,0.0,95,0.01,RA,,0.03,WeatherDisplay:10.37,2013-01-17 03:12:00,
2013-01-16 22:17:00,32.3,31.0,29.94,SW,225,0.0,0.0,95,0.01,OVC,,0.03,WeatherDisplay:10.37,2013-01-17 03:17:00,
2013-01-16 22:22:00,32.3,31.0,29.94,SW,225,0.0,0.0,95,0.01,OVC,,0.03,WeatherDisplay:10.37,2013-01-17 03:22:00,
2013-01-16 22:27:00,32.5,31.2,29.94,SW,225,0.0,0.0,95,0.01,OVC,,0.03,WeatherDisplay:10.37,2013-01-17 03:27:00,
2013-01-16 22:32:00,32.4,31.1,29.94,SW,225,0.0,0.0,95,0.01,OVC,,0.03,WeatherDisplay:10.37,2013-01-17 03:32:00,
2013-01-16 22:37:00,32.4,31.1,29.93,SW,225,0.0,0.0,95,0.01,OVC,,0.03,WeatherDisplay:10.37,2013-01-17 03:37:00,
2013-01-16 22:42:00,32.5,31.2,29.94,WNW,292,1.4,2.3,95,0.01,OVC,,0.03,WeatherDisplay:10.37,2013-01-17 03:42:00,
2013-01-16 22:47:00,32.6,31.3,29.94,West,270,0.8,2.3,95,0.01,OVC,,0.03,WeatherDisplay:10.37,2013-01-17 03:47:00,
2013-01-16 22:52:00,32.6,31.3,29.94,West,270,0.0,0.0,95,0.01,OVC,,0.03,WeatherDisplay:10.37,2013-01-17 03:52:00,
2013-01-16 22:57:00,32.6,31.3,29.94,West,270,0.8,2.3,95,0.01,OVC,,0.03,WeatherDisplay:10.37,2013-01-17 03:57:00,
2013-01-16 23:02:00,32.6,31.3,29.94,West,270,0.0,2.3,95,0.01,OVC,,0.03,WeatherDisplay:10.37,2013-01-17 04:02:00,
2013-01-16 23:07:00,32.6,31.3,29.93,West,270,0.0,1.2,95,0.00,OVC,,0.03,WeatherDisplay:10.37,2013-01-17 04:07:00,
2013-01-16 23:12:00,32.6,31.3,29.93,South,180,1.0,2.3,95,0.00,OVC,,0.03,WeatherDisplay:10.37,2013-01-17 04:12:00,
2013-01-16 23:17:00,32.5,31.2,29.93,South,180,0.0,0.0,95,0.00,OVC,,0.03,WeatherDisplay:10.37,2013-01-17 04:17:00,
2013-01-16 23:22:00,32.5,31.2,29.94,South,180,0.0,0.0,95,0.00,OVC,,0.03,WeatherDisplay:10.37,2013-01-17 04:22:00,
2013-01-16 23:27:00,32.5,31.2,29.94,South,180,0.0,0.0,95,0.00,OVC,,0.03,WeatherDisplay:10.37,2013-01-17 04:27:00,
2013-01-16 23:32:00,32.5,31.2,29.94,South,180,0.0,0.0,95,0.00,OVC,,0.03,WeatherDisplay:10.37,2013-01-17 04:32:00,
2013-01-16 23:37:00,32.5,31.2,29.94,West,270,1.2,2.3,95,0.00,OVC,,0.03,WeatherDisplay:10.37,2013-01-17 04:37:00,
2013-01-16 23:42:00,32.7,31.4,29.94,WSW,247,1.1,2.3,95,0.00,OVC,,0.03,WeatherDisplay:10.37,2013-01-17 04:42:00,
2013-01-16 23:47:00,32.7,31.4,29.94,North,360,1.3,2.3,95,0.00,OVC,,0.03,WeatherDisplay:10.37,2013-01-17 04:47:00,
2013-01-16 23:52:00,32.8,31.5,29.94,WSW,247,1.0,3.5,95,0.01,RA,,0.04,WeatherDisplay:10.37,2013-01-17 04:52:00,
2013-01-16 23:57:00,32.8,31.5,29.95,West,270,0.1,1.2,95,0.01,RA,,0.04,WeatherDisplay:10.37,2013-01-17 04:57:00,